Time;durP1;ratioP1;P1;durP2;ratioP2;P2;SDS_P1;SDS_P2;PMS_P1;PMS_P2;Temp;Humidity;BMP_temperature;BMP_pressure;BME280_temperature;BME280_humidity;BME280_pressure;Samples;Min_cycle;Max_cycle;Signal;HPM_P1;HPM_P2
2022/12/03 00:02:16;;;;;;;37.27;20.03;;;;;;;0.64;100.00;96330.03;4759438;29;20398;-91
2022/12/03 00:04:42;;;;;;;41.47;21.03;;;;;;;0.64;100.00;96327.44;4761245;29;20034;-91
2022/12/03 00:07:08;;;;;;;50.67;25.27;;;;;;;0.72;100.00;96336.47;4768872;29;20092;-91
2022/12/03 00:09:33;;;;;;;39.60;21.13;;;;;;;0.66;100.00;96328.16;4791498;29;20037;-90
2022/12/03 00:11:59;;;;;;;45.00;23.97;;;;;;;0.72;100.00;96329.53;4807519;29;20584;-91
2022/12/03 00:14:28;;;;;;;43.27;23.13;;;;;;;0.81;100.00;96331.56;4804991;29;20038;-87
2022/12/03 00:16:56;;;;;;;42.27;24.30;;;;;;;0.75;100.00;96325.94;4818365;29;20037;-91
2022/12/03 00:19:23;;;;;;;39.30;20.83;;;;;;;0.73;100.00;96328.59;4819119;29;20038;-91
2022/12/03 00:21:49;;;;;;;40.50;20.57;;;;;;;0.73;100.00;96327.78;4800502;29;20186;-91
2022/12/03 00:24:16;;;;;;;40.27;20.53;;;;;;;0.73;100.00;96327.78;4822442;29;20042;-91
2022/12/03 00:26:43;;;;;;;33.87;19.50;;;;;;;0.74;100.00;96324.25;4828832;29;20094;-91
2022/12/03 00:29:10;;;;;;;41.27;22.27;;;;;;;0.75;100.00;96325.94;4836754;29;20061;-92
2022/12/03 00:31:35;;;;;;;37.17;20.17;;;;;;;0.72;100.00;96326.13;4852532;29;20041;-91
2022/12/03 00:34:02;;;;;;;38.07;20.90;;;;;;;0.63;100.00;96320.59;4854888;29;20148;-91
2022/12/03 00:36:28;;;;;;;40.83;21.83;;;;;;;0.73;100.00;96320.00;4855761;29;20037;-91
2022/12/03 00:38:53;;;;;;;39.57;20.47;;;;;;;0.70;100.00;96321.88;4859131;29;20117;-90
2022/12/03 00:41:23;;;;;;;41.30;22.47;;;;;;;0.66;100.00;96325.56;4857208;29;20038;-91
2022/12/03 00:43:49;;;;;;;43.17;23.23;;;;;;;0.69;100.00;96319.38;4843006;29;20396;-93
2022/12/03 00:46:14;;;;;;;42.67;21.70;;;;;;;0.70;100.00;96328.78;4865337;29;20140;-93
2022/12/03 00:48:40;;;;;;;42.43;21.90;;;;;;;0.72;100.00;96320.94;4862525;29;20038;-93
2022/12/03 00:51:06;;;;;;;48.73;24.07;;;;;;;0.66;100.00;96322.16;4831007;29;20038;-93
2022/12/03 00:53:31;;;;;;;44.23;23.00;;;;;;;0.57;100.00;96323.56;4866669;29;20045;-93
2022/12/03 00:55:57;;;;;;;46.40;23.20;;;;;;;0.65;100.00;96323.09;4860272;29;20030;-92
2022/12/03 00:58:28;;;;;;;46.30;23.90;;;;;;;0.62;100.00;96324.09;4859916;29;20045;-92
2022/12/03 01:00:54;;;;;;;43.20;22.07;;;;;;;0.63;100.00;96328.34;4862271;29;20034;-93
2022/12/03 01:03:19;;;;;;;46.83;23.53;;;;;;;0.65;100.00;96331.69;4823652;29;21083;-93
2022/12/03 01:05:45;;;;;;;46.30;21.70;;;;;;;0.62;100.00;96320.69;4848677;29;20754;-93
2022/12/03 01:08:11;;;;;;;49.77;24.87;;;;;;;0.69;100.00;96327.13;4841816;29;20065;-93
2022/12/03 01:10:36;;;;;;;51.50;24.00;;;;;;;0.68;100.00;96330.66;4865512;29;20121;-93
2022/12/03 01:13:02;;;;;;;51.27;23.40;;;;;;;0.66;100.00;96333.34;4864333;29;20041;-93
2022/12/03 01:15:31;;;;;;;49.97;24.60;;;;;;;0.66;100.00;96328.16;4854214;29;20021;-93
2022/12/03 01:17:57;;;;;;;50.60;23.50;;;;;;;0.69;100.00;96330.56;4844161;29;20046;-93
2022/12/03 01:20:22;;;;;;;49.07;22.80;;;;;;;0.67;100.00;96329.84;4859772;29;20061;-92
2022/12/03 01:22:48;;;;;;;53.40;23.27;;;;;;;0.62;100.00;96329.28;4838387;29;20125;-94
2022/12/03 01:25:14;;;;;;;53.60;25.23;;;;;;;0.61;100.00;96329.38;4867493;29;20026;-92
2022/12/03 01:27:40;;;;;;;49.07;22.70;;;;;;;0.69;100.00;96333.16;4864765;29;20026;-93
2022/12/03 01:30:09;;;;;;;46.37;23.43;;;;;;;0.77;100.00;96331.81;4858124;29;20021;-92
2022/12/03 01:32:35;;;;;;;53.33;23.83;;;;;;;0.74;100.00;96329.44;4855654;29;20553;-93
2022/12/03 01:35:01;;;;;;;57.50;27.47;;;;;;;0.67;100.00;96337.59;4863724;29;20053;-93
2022/12/03 01:37:27;;;;;;;51.90;22.97;;;;;;;0.75;100.00;96336.28;4857095;29;20048;-93
2022/12/03 01:39:53;;;;;;;56.90;25.50;;;;;;;0.73;100.00;96338.13;4833230;29;20054;-93
2022/12/03 01:42:23;;;;;;;59.97;28.03;;;;;;;0.67;100.00;96337.59;4830133;29;20915;-92
2022/12/03 01:44:52;;;;;;;58.17;26.80;;;;;;;0.62;100.00;96333.63;4854414;29;20042;-93
2022/12/03 01:47:30;;;;;;;58.43;25.67;;;;;;;0.57;100.00;96328.75;4838830;29;20037;-93
2022/12/03 01:50:03;;;;;;;62.57;26.90;;;;;;;0.56;100.00;96327.06;4836384;29;20042;-92
2022/12/03 01:52:32;;;;;;;62.90;25.92;;;;;;;0.65;100.00;96326.50;4834477;29;21004;-93
2022/12/03 01:55:01;;;;;;;67.87;27.33;;;;;;;0.65;100.00;96338.63;4833653;29;20100;-93
2022/12/03 01:57:49;;;;;;;66.90;28.07;;;;;;;0.64;100.00;96336.97;4831464;29;20025;-93
2022/12/03 02:00:20;;;;;;;61.03;26.43;;;;;;;0.60;100.00;96335.47;4831437;29;20030;-93
2022/12/03 02:02:49;;;;;;;69.33;27.50;;;;;;;0.67;100.00;96339.34;4833333;29;20305;-92
2022/12/03 02:05:19;;;;;;;65.03;27.60;;;;;;;0.65;100.00;96334.28;4845985;29;20034;-93
2022/12/03 02:07:45;;;;;;;63.50;26.47;;;;;;;0.56;100.00;96334.84;4852620;29;20025;-93
2022/12/03 02:10:13;;;;;;;58.87;25.93;;;;;;;0.61;100.00;96326.81;4860207;29;20038;-93
2022/12/03 02:12:54;;;;;;;66.17;30.70;;;;;;;0.66;100.00;96330.75;4843146;29;20041;-92
2022/12/03 02:15:19;;;;;;;65.67;28.33;;;;;;;0.75;100.00;96331.13;4862023;29;20074;-92
2022/12/03 02:17:45;;;;;;;67.13;29.73;;;;;;;0.77;100.00;96324.06;4846528;29;20412;-93
2022/12/03 02:20:13;;;;;;;69.63;29.77;;;;;;;0.73;100.00;96327.78;4863362;29;20076;-93
2022/12/03 02:23:04;;;;;;;60.97;27.10;;;;;;;0.78;100.00;96336.09;4840850;29;20048;-93
2022/12/03 02:25:32;;;;;;;61.07;26.77;;;;;;;0.77;100.00;96331.81;4869963;29;20038;-93
2022/12/03 02:27:59;;;;;;;66.60;28.93;;;;;;;0.75;100.00;96334.53;4852236;29;20547;-92
2022/12/03 02:30:28;;;;;;;66.83;28.20;;;;;;;0.80;100.00;96329.88;4867256;29;20034;-93
2022/12/03 02:32:55;;;;;;;66.57;28.37;;;;;;;0.81;100.00;96333.31;4846789;29;20030;-93
2022/12/03 02:35:25;;;;;;;64.00;28.97;;;;;;;0.80;100.00;96331.63;4834799;29;20894;-93
2022/12/03 02:37:59;;;;;;;67.90;28.20;;;;;;;0.78;100.00;96330.91;4830583;29;20042;-93
2022/12/03 02:40:26;;;;;;;;;;;;;;;0.77;100.00;96329.25;4815060;29;20046;-93
2022/12/03 02:42:56;;;;;;;63.67;27.30;;;;;;;0.81;100.00;96336.72;4841288;29;19920;-93
2022/12/03 02:45:29;;;;;;;57.53;26.53;;;;;;;0.75;100.00;96333.69;4826414;29;20109;-93
2022/12/03 02:48:02;;;;;;;66.45;28.27;;;;;;;0.66;100.00;96335.09;4827511;29;20489;-93
2022/12/03 02:50:32;;;;;;;59.67;26.65;;;;;;;0.72;100.00;96332.13;4825884;29;20070;-94
2022/12/03 02:53:01;;;;;;;71.17;28.97;;;;;;;0.78;100.00;96338.69;4822919;29;20062;-93
2022/12/03 02:55:31;;;;;;;59.43;26.10;;;;;;;0.75;100.00;96331.94;4837689;29;20023;-93
2022/12/03 02:57:57;;;;;;;62.17;29.03;;;;;;;0.77;100.00;96334.41;4831364;29;20038;-92
2022/12/03 03:00:23;;;;;;;63.50;28.80;;;;;;;0.80;100.00;96334.22;4832680;29;20063;-93
2022/12/03 03:02:52;;;;;;;61.77;26.37;;;;;;;0.77;100.00;96335.28;4846765;29;20642;-93
2022/12/03 03:05:20;;;;;;;63.43;28.40;;;;;;;0.81;100.00;96341.09;4852330;29;20042;-93
2022/12/03 03:07:47;;;;;;;65.03;29.27;;;;;;;0.77;100.00;96335.28;4855769;29;20057;-94
2022/12/03 03:10:15;;;;;;;58.80;26.03;;;;;;;0.85;100.00;96339.97;4844456;29;20031;-93
2022/12/03 03:12:41;;;;;;;65.50;28.20;;;;;;;0.86;100.00;96339.03;4848475;29;20058;-93
2022/12/03 03:15:14;;;;;;;58.37;27.07;;;;;;;0.81;100.00;96335.91;4852877;29;20047;-93
2022/12/03 03:17:41;;;;;;;60.53;27.67;;;;;;;0.86;100.00;96339.03;4850870;29;20034;-94
2022/12/03 03:20:18;;;;;;;52.70;25.00;;;;;;;0.86;100.00;96331.25;4822165;29;20466;-94
2022/12/03 03:22:45;;;;;;;60.20;25.77;;;;;;;0.74;100.00;96334.59;4842890;29;20034;-93
2022/12/03 03:25:17;;;;;;;55.97;27.17;;;;;;;0.73;100.00;96338.13;4863796;29;20037;-93
2022/12/03 03:27:44;;;;;;;65.43;28.90;;;;;;;0.69;100.00;96330.56;4871999;29;20043;-94
2022/12/03 03:30:11;;;;;;;63.20;28.77;;;;;;;0.70;100.00;96334.81;4860759;29;20034;-93
2022/12/03 03:32:38;;;;;;;57.33;29.00;;;;;;;0.70;100.00;96329.66;4870433;29;20073;-93
2022/12/03 03:35:05;;;;;;;62.33;28.97;;;;;;;0.72;100.00;96332.13;4843570;29;20042;-93
2022/12/03 03:37:31;;;;;;;69.67;30.53;;;;;;;0.71;100.00;96335.66;4819772;29;20692;-93
2022/12/03 03:39:57;;;;;;;73.13;30.77;;;;;;;0.80;100.00;96336.81;4823366;29;20042;-93
2022/12/03 03:42:23;;;;;;;68.03;31.37;;;;;;;0.76;100.00;96330.16;4830242;29;20065;-93
2022/12/03 03:44:49;;;;;;;76.30;33.73;;;;;;;0.77;100.00;96331.81;4839727;29;20076;-93
2022/12/03 03:47:16;;;;;;;74.67;33.93;;;;;;;0.75;100.00;96316.41;4826745;29;20034;-93
2022/12/03 03:49:43;;;;;;;63.73;30.77;;;;;;;0.75;100.00;96333.69;4840681;29;20803;-92
2022/12/03 03:52:18;;;;;;;68.90;32.37;;;;;;;0.77;100.00;96326.66;4846968;29;20046;-93
2022/12/03 03:54:45;;;;;;;65.77;30.57;;;;;;;0.73;100.00;96325.19;4827121;29;20231;-92
2022/12/03 03:57:11;;;;;;;65.53;30.87;;;;;;;0.76;100.00;96322.41;4824900;29;20082;-92
2022/12/03 03:59:36;;;;;;;65.97;29.97;;;;;;;0.68;100.00;96321.13;4837476;29;20050;-93
2022/12/03 04:02:02;;;;;;;61.20;29.10;;;;;;;0.72;100.00;96326.94;4825162;29;20042;-92
2022/12/03 04:04:35;;;;;;;65.93;30.77;;;;;;;0.70;100.00;96315.84;4841385;29;20042;-92
2022/12/03 04:07:01;;;;;;;61.92;30.85;;;;;;;0.68;100.00;96317.72;4846394;29;20042;-93
2022/12/03 04:09:26;;;;;;;60.43;29.20;;;;;;;0.61;100.00;96324.22;4846049;29;20068;-93
2022/12/03 04:14:36;;;;;;;63.57;29.47;;;;;;;0.66;100.00;96311.81;4862396;29;20042;-92
2022/12/03 04:17:02;;;;;;;55.70;29.13;;;;;;;0.68;100.00;96310.78;4845162;29;20489;-93
2022/12/03 04:19:34;;;;;;;60.60;30.70;;;;;;;0.65;100.00;96312.75;4838986;29;20030;-93
2022/12/03 04:24:44;;;;;;;54.93;27.77;;;;;;;0.70;100.00;96314.13;4862329;29;20038;-93
2022/12/03 04:29:53;;;;;;;54.00;27.97;;;;;;;0.69;100.00;96312.44;4864922;29;20494;-92
2022/12/03 04:37:49;;;;;;;57.27;28.57;;;;;;;0.62;100.00;96313.75;4861114;29;20073;-93
2022/12/03 04:42:59;;;;;;;54.83;26.47;;;;;;;0.65;100.00;96305.81;4846008;29;20949;-93
2022/12/03 04:45:30;;;;;;;57.33;27.43;;;;;;;0.58;100.00;96320.06;4840093;29;20034;-93
2022/12/03 04:47:55;;;;;;;56.50;29.97;;;;;;;0.60;100.00;96313.00;4836838;29;20040;-93
2022/12/03 04:50:21;;;;;;;63.80;32.40;;;;;;;0.46;100.00;96313.88;4826608;29;20030;-93
2022/12/03 04:52:47;;;;;;;56.73;28.53;;;;;;;0.52;100.00;96314.44;4816236;29;20046;-92
2022/12/03 04:55:13;;;;;;;56.90;29.20;;;;;;;0.51;100.00;96313.59;4821277;29;20049;-93
2022/12/03 04:57:39;;;;;;;55.60;28.00;;;;;;;0.54;100.00;96303.06;4809721;29;20102;-93
2022/12/03 05:00:06;;;;;;;55.47;28.43;;;;;;;0.60;100.00;96309.59;4811560;29;21198;-92
2022/12/03 05:02:34;;;;;;;57.87;29.00;;;;;;;0.56;100.00;96310.72;4796006;29;20535;-93
2022/12/03 05:04:59;;;;;;;55.67;27.60;;;;;;;0.53;100.00;96306.56;4803429;29;20145;-93
2022/12/03 05:07:28;;;;;;;53.33;27.90;;;;;;;0.54;100.00;96305.66;4830034;29;20116;-92
2022/12/03 05:09:55;;;;;;;57.23;27.63;;;;;;;0.53;100.00;96306.56;5382251;23;21060;-93
2022/12/03 05:12:20;;;;;;;49.30;26.20;;;;;;;0.49;100.00;96302.50;5368788;23;20506;-94
2022/12/03 05:17:27;;;;;;;50.90;24.87;;;;;;;0.56;100.00;96305.53;5214409;23;20061;-92
2022/12/03 05:22:38;;;;;;;50.03;27.20;;;;;;;0.53;100.00;96306.56;4887331;29;20049;-92
2022/12/03 05:25:05;;;;;;;49.73;26.77;;;;;;;0.55;100.00;96303.91;4881948;29;20037;-93
2022/12/03 05:27:31;;;;;;;48.17;26.13;;;;;;;0.56;100.00;96310.72;4885821;29;20097;-93
2022/12/03 05:29:57;;;;;;;48.30;27.37;;;;;;;0.51;100.00;96300.66;4884232;29;20025;-92
2022/12/03 05:32:22;;;;;;;52.93;28.10;;;;;;;0.51;100.00;96308.44;5080203;23;20416;-90
2022/12/03 05:34:48;;;;;;;49.70;25.37;;;;;;;0.48;100.00;96308.63;4999326;23;20051;-91
2022/12/03 05:37:14;;;;;;;52.13;27.47;;;;;;;0.43;100.00;96306.28;4830646;29;20109;-92
2022/12/03 05:39:41;;;;;;;53.80;28.37;;;;;;;0.45;100.00;96303.63;4836353;29;20582;-91
2022/12/03 05:44:52;;;;;;;49.90;26.60;;;;;;;0.43;100.00;96298.53;4873783;29;20573;-93
2022/12/03 05:47:18;;;;;;;50.90;26.43;;;;;;;0.48;100.00;96298.28;4838649;29;20508;-91
2022/12/03 05:49:44;;;;;;;47.07;26.27;;;;;;;0.52;100.00;96301.50;4865049;29;20055;-92
2022/12/03 05:52:09;;;;;;;46.47;26.13;;;;;;;0.52;100.00;96288.56;4825341;29;20031;-91
2022/12/03 05:54:35;;;;;;;48.70;25.50;;;;;;;0.52;100.00;96294.56;4840202;29;20066;-91
2022/12/03 05:57:01;;;;;;;49.37;27.00;;;;;;;0.54;100.00;96289.28;4823620;29;20053;-92
2022/12/03 05:59:26;;;;;;;45.07;25.23;;;;;;;0.43;100.00;96292.53;4855674;29;20103;-92
2022/12/03 06:01:52;;;;;;;44.17;25.70;;;;;;;0.45;100.00;96295.88;4819328;29;20045;-92
2022/12/03 06:04:18;;;;;;;50.37;27.37;;;;;;;0.30;100.00;96297.63;4813128;29;20099;-91
2022/12/03 06:06:44;;;;;;;47.37;24.83;;;;;;;0.37;100.00;96300.66;4824771;29;20453;-91
2022/12/03 06:09:12;;;;;;;44.47;23.83;;;;;;;0.41;100.00;96302.16;4834476;29;20049;-91
2022/12/03 06:11:39;;;;;;;44.33;25.00;;;;;;;0.40;100.00;96295.31;4821641;29;20090;-92
2022/12/03 06:14:05;;;;;;;44.27;22.93;;;;;;;0.41;100.00;96304.75;4806038;29;20543;-91
2022/12/03 06:16:34;;;;;;;40.50;23.43;;;;;;;0.36;100.00;96294.66;4836309;29;20058;-92
2022/12/03 06:19:00;;;;;;;43.87;21.30;;;;;;;0.29;100.00;96295.16;4820569;29;20122;-92
2022/12/03 06:21:30;;;;;;;36.97;20.27;;;;;;;0.21;100.00;96299.06;4809206;29;20034;-91
2022/12/03 06:23:56;;;;;;;40.23;22.00;;;;;;;0.29;100.00;96300.34;4809025;29;20034;-91
2022/12/03 06:26:21;;;;;;;44.47;22.43;;;;;;;0.34;100.00;96286.19;4810572;29;20482;-91
2022/12/03 06:28:52;;;;;;;39.80;22.27;;;;;;;0.40;100.00;96287.56;4825668;29;20057;-92
2022/12/03 06:31:18;;;;;;;41.93;20.87;;;;;;;0.23;100.00;96291.19;4839050;29;20054;-92
2022/12/03 06:33:44;;;;;;;37.60;19.47;;;;;;;0.25;100.00;96296.28;4863865;29;20011;-92
2022/12/03 06:36:09;;;;;;;36.97;20.83;;;;;;;0.27;100.00;96294.41;4837777;29;20310;-92
2022/12/03 06:38:45;;;;;;;34.60;19.70;;;;;;;0.34;100.00;96298.31;4827882;29;20088;-92
2022/12/03 06:41:14;;;;;;;38.60;22.10;;;;;;;0.32;100.00;96297.56;4843854;29;20061;-92
2022/12/03 06:43:40;;;;;;;37.37;20.37;;;;;;;0.25;100.00;96304.03;4818205;29;20117;-92
2022/12/03 06:46:05;;;;;;;33.07;19.87;;;;;;;0.28;100.00;96306.44;4834356;29;20472;-92
2022/12/03 06:48:31;;;;;;;35.10;19.43;;;;;;;0.28;100.00;96301.25;4817190;29;20073;-92
2022/12/03 06:50:57;;;;;;;33.47;20.23;;;;;;;0.22;100.00;96312.81;4827978;29;20046;-92
2022/12/03 06:53:23;;;;;;;33.83;18.90;;;;;;;0.22;100.00;96333.50;4821548;29;20056;-92
2022/12/03 06:55:49;;;;;;;32.20;18.67;;;;;;;0.27;100.00;96341.81;4819519;29;20472;-92
2022/12/03 06:58:19;;;;;;;33.07;18.07;;;;;;;0.15;100.00;96345.13;4848363;29;20035;-93
2022/12/03 07:00:44;;;;;;;29.60;17.33;;;;;;;0.13;100.00;96337.47;4823984;29;20121;-93
2022/12/03 07:03:10;;;;;;;28.27;17.23;;;;;;;0.08;100.00;96330.94;4823342;29;20589;-93
2022/12/03 07:05:36;;;;;;;32.07;17.53;;;;;;;0.04;100.00;96340.63;4831868;29;20030;-92
2022/12/03 07:08:02;;;;;;;32.20;18.40;;;;;;;0.05;100.00;96337.09;4829143;29;20111;-93
2022/12/03 07:10:28;;;;;;;33.80;18.40;;;;;;;0.03;100.00;96328.59;4812339;29;20034;-92
2022/12/03 07:12:54;;;;;;;37.93;21.33;;;;;;;0.06;100.00;96328.41;4801009;29;20042;-93
2022/12/03 07:15:37;;;;;;;40.07;22.70;;;;;;;0.18;100.00;96332.03;4837267;29;20038;-93
2022/12/03 07:18:03;;;;;;;29.13;18.17;;;;;;;-0.01;100.00;96333.13;4847858;29;20610;-93
2022/12/03 07:20:28;;;;;;;45.73;25.00;;;;;;;0.04;100.00;96330.28;4818186;29;20046;-93
2022/12/03 07:22:59;;;;;;;40.07;22.60;;;;;;;0.12;100.00;96327.22;4818926;29;20026;-93
2022/12/03 07:25:24;;;;;;;42.00;23.53;;;;;;;0.03;100.00;96332.94;4815004;29;20490;-92
2022/12/03 07:27:50;;;;;;;44.90;24.03;;;;;;;0.01;100.00;96338.22;4804526;29;20482;-93
2022/12/03 07:30:18;;;;;;;49.07;24.53;;;;;;;-0.04;100.00;96335.88;4828406;29;21182;-93
2022/12/03 07:32:44;;;;;;;45.83;24.57;;;;;;;-0.04;100.00;96335.06;4832587;29;20035;-92
2022/12/03 07:35:10;;;;;;;47.83;25.63;;;;;;;-0.11;100.00;96342.34;4814424;29;20484;-93
2022/12/03 07:37:37;;;;;;;52.30;26.67;;;;;;;-0.15;100.00;96334.88;4818321;29;21202;-92
2022/12/03 07:40:04;;;;;;;50.87;26.50;;;;;;;-0.10;100.00;96323.34;4831683;29;20046;-93
2022/12/03 07:42:30;;;;;;;51.07;26.67;;;;;;;-0.15;100.00;96321.97;4838854;29;20475;-93
2022/12/03 07:44:55;;;;;;;52.40;28.33;;;;;;;-0.09;100.00;96325.00;4825679;29;20464;-93
2022/12/03 07:47:21;;;;;;;48.13;25.70;;;;;;;-0.10;100.00;96330.25;4834635;29;20042;-92
2022/12/03 07:49:52;;;;;;;54.80;29.40;;;;;;;-0.11;100.00;96332.00;4817078;29;20117;-93
2022/12/03 07:52:17;;;;;;;51.50;25.60;;;;;;;-0.12;100.00;96320.03;4828897;29;20045;-91
2022/12/03 07:54:43;;;;;;;46.00;25.23;;;;;;;-0.12;100.00;96321.78;4836665;29;20459;-91
2022/12/03 07:57:09;;;;;;;46.37;25.73;;;;;;;-0.12;100.00;96316.59;4824317;29;20053;-91
2022/12/03 07:59:35;;;;;;;46.57;23.70;;;;;;;-0.08;100.00;96311.16;4802892;29;20026;-91
2022/12/03 08:02:01;;;;;;;43.63;21.33;;;;;;;-0.06;100.00;96306.72;4816884;29;20776;-91
2022/12/03 08:04:27;;;;;;;38.60;19.23;;;;;;;-0.13;100.00;96300.28;4831284;29;20035;-92
2022/12/03 08:06:53;;;;;;;38.53;19.30;;;;;;;-0.11;100.00;96305.34;4808407;29;20513;-90
2022/12/03 08:09:19;;;;;;;34.63;17.73;;;;;;;-0.16;100.00;96305.63;4803553;29;20192;-91
2022/12/03 08:11:54;;;;;;;36.13;19.10;;;;;;;-0.27;100.00;96306.28;4813336;29;20509;-91
2022/12/03 08:14:20;;;;;;;38.87;19.27;;;;;;;-0.27;100.00;96297.66;4821219;29;20042;-92
2022/12/03 08:16:47;;;;;;;39.80;19.73;;;;;;;-0.25;100.00;96298.41;4841393;29;20451;-91
2022/12/03 08:19:17;;;;;;;41.77;20.03;;;;;;;-0.23;100.00;96309.50;4820445;29;20026;-89
2022/12/03 08:21:44;;;;;;;39.90;20.30;;;;;;;-0.29;100.00;96302.09;4809693;29;20518;-88
2022/12/03 08:24:19;;;;;;;37.17;20.03;;;;;;;-0.31;100.00;96304.78;4793572;29;20471;-91
2022/12/03 08:26:47;;;;;;;36.57;18.07;;;;;;;-0.26;100.00;96310.50;4831061;29;20483;-88
2022/12/03 08:29:15;;;;;;;41.53;19.33;;;;;;;-0.16;100.00;96299.63;4829664;29;21910;-89
2022/12/03 08:31:46;;;;;;;42.53;20.37;;;;;;;-0.13;100.00;96291.69;4848669;29;20469;-88
2022/12/03 08:34:27;;;;;;;40.43;20.33;;;;;;;-0.13;100.00;96304.63;4844552;29;20541;-91
2022/12/03 08:37:16;;;;;;;41.00;21.00;;;;;;;-0.14;100.00;96298.59;4830049;29;20583;-91
2022/12/03 08:39:50;;;;;;;39.90;19.30;;;;;;;-0.05;100.00;96303.22;4811307;29;20506;-94
2022/12/03 08:42:43;;;;;;;40.70;20.13;;;;;;;-0.09;100.00;96303.50;4825829;29;20464;-94
2022/12/03 08:45:56;;;;;;;38.70;20.83;;;;;;;-0.09;100.00;96312.09;4839997;29;20034;-96
2022/12/03 08:48:40;;;;;;;45.33;20.43;;;;;;;-0.17;100.00;96326.38;4858027;29;20491;-94
2022/12/03 08:51:19;;;;;;;42.03;19.17;;;;;;;-0.20;100.00;96321.38;4844672;29;20470;-94
2022/12/03 08:54:08;;;;;;;39.53;20.80;;;;;;;-0.29;100.00;96317.63;4844908;29;20519;-92
2022/12/03 08:56:35;;;;;;;47.30;21.13;;;;;;;-0.29;100.00;96320.19;4845956;29;20562;-93
2022/12/03 08:59:27;;;;;;;46.43;20.43;;;;;;;-0.18;100.00;96317.78;4827154;29;20574;-84
2022/12/03 09:01:53;;;;;;;44.73;21.50;;;;;;;-0.29;100.00;96318.44;4845679;29;20527;-86
2022/12/03 09:04:43;;;;;;;45.47;21.93;;;;;;;-0.20;100.00;96316.22;4848896;29;20812;-86
2022/12/03 09:07:12;;;;;;;50.47;21.73;;;;;;;-0.14;100.00;96321.84;4835835;29;20811;-87
2022/12/03 09:09:38;;;;;;;46.87;21.20;;;;;;;-0.25;100.00;96325.09;4856228;29;20475;-87
2022/12/03 09:12:07;;;;;;;45.63;21.23;;;;;;;-0.11;100.00;96328.59;4830756;29;20482;-88
2022/12/03 09:14:33;;;;;;;45.10;21.60;;;;;;;-0.17;100.00;96323.78;4828946;29;20071;-88
2022/12/03 09:16:58;;;;;;;43.13;21.70;;;;;;;-0.21;100.00;96332.66;4857911;29;20648;-85
2022/12/03 09:19:26;;;;;;;40.67;19.23;;;;;;;-0.26;100.00;96331.19;4831521;29;20545;-83
2022/12/03 09:21:53;;;;;;;39.60;19.77;;;;;;;-0.07;100.00;96322.31;4843883;29;20042;-89
2022/12/03 09:24:19;;;;;;;36.30;19.30;;;;;;;-0.12;100.00;96324.38;4840085;29;20498;-88
2022/12/03 09:27:04;;;;;;;42.67;20.90;;;;;;;-0.04;100.00;96317.78;4835442;29;20494;-89
2022/12/03 09:29:30;;;;;;;39.33;19.37;;;;;;;-0.02;100.00;96310.78;4853300;29;20475;-89
2022/12/03 09:31:55;;;;;;;41.53;21.17;;;;;;;-0.09;100.00;96304.31;4858751;29;21339;-88
2022/12/03 09:34:21;;;;;;;44.13;21.43;;;;;;;0.84;100.00;96289.09;4829770;29;20038;-87
2022/12/03 09:36:48;;;;;;;41.17;20.27;;;;;;;0.60;100.00;96279.38;4824773;29;20697;-88
2022/12/03 09:39:20;;;;;;;37.73;20.03;;;;;;;0.53;100.00;96272.91;4840589;29;20045;-89
2022/12/03 09:41:46;;;;;;;39.20;19.70;;;;;;;0.46;100.00;96279.41;4848928;29;20041;-88
2022/12/03 09:44:14;;;;;;;41.57;20.77;;;;;;;0.28;100.00;96270.22;4828016;29;20060;-90
2022/12/03 09:46:46;;;;;;;38.33;19.13;;;;;;;0.28;100.00;96262.47;4840357;29;20058;-89
2022/12/03 09:49:17;;;;;;;39.07;18.77;;;;;;;0.22;100.00;96261.91;4836451;29;20061;-89
2022/12/03 09:51:44;;;;;;;41.80;21.23;;;;;;;0.30;100.00;96263.19;4835102;29;20575;-90
2022/12/03 09:54:21;;;;;;;40.37;20.47;;;;;;;0.26;100.00;96266.91;4836224;29;20456;-90
2022/12/03 09:56:47;;;;;;;41.97;20.37;;;;;;;0.17;100.00;96286.41;4834235;29;20470;-86
2022/12/03 09:59:14;;;;;;;40.03;19.83;;;;;;;0.13;100.00;96303.84;4866640;29;20034;-83
2022/12/03 10:01:48;;;;;;;37.90;19.30;;;;;;;0.08;100.00;96294.72;4824131;29;20042;-84
2022/12/03 10:04:14;;;;;;;41.13;20.88;;;;;;;0.11;100.00;96303.13;4855313;29;20039;-83
2022/12/03 10:06:40;;;;;;;41.10;20.50;;;;;;;0.11;100.00;96315.22;4860901;29;20051;-84
2022/12/03 10:09:11;;;;;;;40.87;19.73;;;;;;;0.06;100.00;96307.72;4861079;29;20026;-83
2022/12/03 10:11:37;;;;;;;45.50;22.27;;;;;;;0.14;100.00;96302.13;4866766;29;20043;-84
2022/12/03 10:14:03;;;;;;;38.70;18.77;;;;;;;0.06;100.00;96301.72;4860099;29;20467;-84
2022/12/03 10:16:29;;;;;;;50.27;21.00;;;;;;;0.06;100.00;96301.72;4844588;29;20031;-84
2022/12/03 10:18:59;;;;;;;38.30;19.60;;;;;;;-0.19;100.00;96299.81;4760558;29;25037;-83
2022/12/03 10:21:35;;;;;;;40.93;20.63;;;;;;;-0.12;100.00;96298.50;4733593;29;20478;-83
2022/12/03 10:24:33;;;;;;;45.50;19.43;;;;;;;-0.05;100.00;96299.81;4717690;29;20937;-83
2022/12/03 10:27:02;;;;;;;45.63;20.07;;;;;;;-0.04;100.00;96294.53;4699583;29;20480;-84
2022/12/03 10:29:31;;;;;;;39.83;19.73;;;;;;;0.07;100.00;96293.03;4730980;29;20483;-83
2022/12/03 10:32:03;;;;;;;41.03;19.07;;;;;;;0.03;100.00;96287.22;4679414;29;20936;-84
2022/12/03 10:34:34;;;;;;;41.87;20.03;;;;;;;0.07;100.00;96274.94;4699338;29;20487;-83
2022/12/03 10:37:18;;;;;;;45.03;20.77;;;;;;;-0.04;100.00;96278.19;4699123;29;20527;-83
2022/12/03 10:40:07;;;;;;;46.97;20.53;;;;;;;0.07;100.00;96270.63;4718386;29;20519;-83
2022/12/03 10:42:39;;;;;;;40.57;18.87;;;;;;;0.08;100.00;96264.53;4679492;29;20448;-83
2022/12/03 10:45:13;;;;;;;42.13;20.63;;;;;;;0.17;100.00;96258.78;4686088;29;20566;-83
2022/12/03 10:47:40;;;;;;;37.63;19.37;;;;;;;0.11;100.00;96254.00;4698051;29;20480;-83
2022/12/03 10:50:19;;;;;;;40.63;18.03;;;;;;;0.00;100.00;96248.66;4675287;29;20511;-84
2022/12/03 10:52:46;;;;;;;46.27;20.97;;;;;;;0.03;100.00;96251.03;4802552;29;20479;-83
2022/12/03 10:55:13;;;;;;;46.47;21.73;;;;;;;0.11;100.00;96248.00;4838551;29;20474;-83
2022/12/03 10:57:39;;;;;;;45.37;20.20;;;;;;;0.10;100.00;96246.31;4851739;29;20075;-83
2022/12/03 11:00:06;;;;;;;39.43;18.63;;;;;;;0.13;100.00;96252.13;4850176;29;20034;-84
2022/12/03 11:02:32;;;;;;;44.17;18.60;;;;;;;-0.03;100.00;96236.75;4831630;29;20453;-83
2022/12/03 11:04:59;;;;;;;45.43;19.47;;;;;;;0.08;100.00;96237.84;4665422;29;20038;-84
2022/12/03 11:07:25;;;;;;;44.40;18.93;;;;;;;-0.16;100.00;96230.66;4693059;29;20141;-83
2022/12/03 11:09:57;;;;;;;38.10;18.43;;;;;;;-0.06;100.00;96229.19;4664235;29;20606;-82
2022/12/03 11:12:26;;;;;;;45.13;21.73;;;;;;;-0.01;100.00;96218.53;4681789;29;20614;-83
2022/12/03 11:14:55;;;;;;;39.57;18.60;;;;;;;0.05;100.00;96215.59;4688677;29;20490;-83
2022/12/03 11:17:46;;;;;;;49.03;20.80;;;;;;;0.05;100.00;96222.53;4679768;29;20519;-83
2022/12/03 11:20:19;;;;;;;44.30;20.40;;;;;;;0.06;100.00;96222.41;4676230;29;20480;-83
2022/12/03 11:22:51;;;;;;;43.92;18.92;;;;;;;-0.06;100.00;96215.44;4698824;29;20497;-83
2022/12/03 11:25:25;;;;;;;48.43;19.37;;;;;;;-0.07;100.00;96214.59;4684389;29;20047;-84
2022/12/03 11:28:13;;;;;;;46.73;18.43;;;;;;;-0.09;100.00;96220.78;4681263;29;21542;-85
2022/12/03 11:30:50;;;;;;;39.53;16.30;;;;;;;-0.15;100.00;96211.66;4719125;29;21040;-84
2022/12/03 11:37:11;;;;;;;46.40;18.40;;;;;;;-0.01;100.00;96203.84;4652312;29;20588;-84
2022/12/03 11:39:50;;;;;;;37.07;17.67;;;;;;;-0.09;100.00;96206.09;4642373;29;20471;-84
2022/12/03 11:42:24;;;;;;;45.67;20.60;;;;;;;-0.10;100.00;96207.03;4691624;29;20482;-83
2022/12/03 11:45:07;;;;;;;38.43;18.53;;;;;;;-0.12;100.00;96205.47;4693596;29;20490;-83
2022/12/03 11:47:40;;;;;;;30.73;12.98;;;;;;;-0.16;100.00;96204.00;4668960;29;20490;-83
2022/12/03 11:50:28;;;;;;;43.55;19.20;;;;;;;-0.27;100.00;96210.66;4670540;29;20043;-82
2022/12/03 11:53:14;;;;;;;46.97;18.57;;;;;;;-0.20;100.00;96207.66;4650607;29;20039;-81